createdAt,value
2022-12-23T00:13:23.558Z,8.5
2022-12-23T00:28:19.375Z,8.61
2022-12-23T00:43:15.250Z,8.53
2022-12-23T00:58:11.620Z,8.52
2022-12-23T01:13:08.098Z,8.48
2022-12-23T01:28:04.524Z,8.48
2022-12-23T01:43:01.066Z,8.45
2022-12-23T01:57:57.628Z,8.44
2022-12-23T02:12:53.816Z,8.34
2022-12-23T02:27:49.656Z,8.49
2022-12-23T02:42:45.957Z,8.44
2022-12-23T02:57:41.933Z,8.26
2022-12-23T03:12:38.067Z,8.07
2022-12-23T03:27:33.666Z,8.44
2022-12-23T03:57:26.837Z,9.15
2022-12-23T04:12:23.074Z,8.95
2022-12-23T04:27:19.838Z,8.74
2022-12-23T04:42:15.244Z,8.73
2022-12-23T04:57:11.911Z,8.7
2022-12-23T05:12:07.719Z,8.65
2022-12-23T05:27:04.038Z,8.48
2022-12-23T05:42:00.037Z,8.73
2022-12-23T05:56:56.668Z,9.26
2022-12-23T06:11:52.933Z,9.14
2022-12-23T06:26:53.452Z,9.15
2022-12-23T07:26:34.638Z,8.41
2022-12-23T07:41:30.513Z,8.28
2022-12-23T07:56:26.569Z,7.89
2022-12-23T08:11:22.415Z,7.7
2022-12-23T08:26:18.775Z,7.74
2022-12-23T08:41:14.887Z,7.72
2022-12-23T08:56:11.293Z,7.84
2022-12-23T09:11:07.608Z,7.99
2022-12-23T09:26:03.725Z,8.07
2022-12-23T09:40:59.697Z,7.97
2022-12-23T09:55:55.821Z,7.99
2022-12-23T10:10:52.194Z,8.08
2022-12-23T10:25:48.512Z,8.42
2022-12-23T10:40:45.484Z,8.41
2022-12-23T10:55:41.682Z,8.46
2022-12-23T11:10:37.938Z,8.67
2022-12-23T11:12:02.752Z,8.68
2022-12-23T11:26:58.315Z,8.78
2022-12-23T11:41:55.131Z,8.75
2022-12-23T11:44:48.393Z,8.79
2022-12-23T11:59:44.755Z,8.7
2022-12-23T12:02:42.591Z,8.84
2022-12-23T12:17:38.791Z,9.18
2022-12-23T12:31:00.836Z,9.47
2022-12-23T12:45:57.021Z,9.35
2022-12-23T12:55:32.094Z,9.28
2022-12-23T13:06:17.653Z,9.32
2022-12-23T13:21:13.933Z,9.37
2022-12-23T13:36:10.028Z,9.35
2022-12-23T13:51:06.095Z,9.41
2022-12-23T13:53:07.930Z,9.38
2022-12-23T14:08:03.481Z,9.48
2022-12-23T14:23:00.150Z,9.7
2022-12-23T14:37:56.671Z,9.8
2022-12-23T14:50:38.105Z,9.56
2022-12-23T15:05:34.273Z,9.54
2022-12-23T15:20:30.507Z,9.67
2022-12-23T15:35:26.965Z,9.67
2022-12-23T15:50:23.193Z,9.66
2022-12-23T16:05:19.011Z,9.38
2022-12-23T16:20:14.654Z,9.43
2022-12-23T16:35:10.897Z,9.41
2022-12-23T16:50:07.088Z,8.98
2022-12-23T17:05:03.234Z,11.52
2022-12-23T17:19:59.893Z,12.8
2022-12-23T17:34:56.616Z,12.56
2022-12-23T17:49:52.788Z,12.46
2022-12-23T18:04:49.218Z,12.16
2022-12-23T18:19:45.459Z,12.44
2022-12-23T18:34:42.040Z,12.5
2022-12-23T18:49:38.050Z,12.35
2022-12-23T19:04:34.473Z,12.4
2022-12-23T19:19:30.914Z,11.77
2022-12-23T19:34:27.455Z,12.09
2022-12-23T19:49:23.832Z,11.99
2022-12-23T20:04:20.555Z,11.88
2022-12-23T20:19:16.756Z,11.83
2022-12-23T20:34:13.071Z,11.23
2022-12-23T20:49:08.742Z,10.63
2022-12-23T21:04:04.912Z,10.68
2022-12-23T21:19:01.238Z,11.45
2022-12-23T21:33:57.690Z,11.88
2022-12-23T21:48:53.623Z,11.89
2022-12-23T22:03:49.973Z,12.2
2022-12-23T22:18:46.542Z,12.31
2022-12-23T22:33:42.588Z,12.13
2022-12-23T22:48:38.093Z,12
2022-12-23T23:03:34.344Z,11.96
2022-12-23T23:18:29.954Z,12.03
2022-12-23T23:33:26.178Z,11.63
2022-12-23T23:48:22.440Z,11.81
